Time;durP1;ratioP1;P1;durP2;ratioP2;P2;SDS_P1;SDS_P2;PMS_P1;PMS_P2;Temp;Humidity;BMP_temperature;BMP_pressure;BME280_temperature;BME280_humidity;BME280_pressure;Samples;Min_cycle;Max_cycle;Signal;HPM_P1;HPM_P2
2021/11/14 00:01:00;;;;;;;;;;;18.20;72.60;;;;;;5075465;28;19924;-51
2021/11/14 00:03:28;;;;;;;;;;;18.20;72.50;;;;;;5075400;28;20015;-49
2021/11/14 00:05:55;;;;;;;;;;;18.20;72.50;;;;;;5074228;28;19924;-45
2021/11/14 00:08:22;;;;;;;;;;;18.20;72.50;;;;;;5074430;28;19947;-48
2021/11/14 00:10:52;;;;;;;;;;;18.20;72.50;;;;;;5075492;28;19931;-48
2021/11/14 00:13:19;;;;;;;;;;;18.20;72.50;;;;;;5075373;28;19925;-50
2021/11/14 00:15:46;;;;;;;;;;;18.20;72.50;;;;;;5076010;28;19990;-50
2021/11/14 00:18:13;;;;;;;;;;;18.20;72.50;;;;;;5075350;28;19925;-49
2021/11/14 00:20:40;;;;;;;;;;;18.20;72.50;;;;;;5056387;28;19929;-52
2021/11/14 00:23:07;;;;;;;;;;;18.20;72.50;;;;;;5075098;28;20295;-46
2021/11/14 00:25:34;;;;;;;;;;;18.20;72.50;;;;;;5075255;28;19929;-51
2021/11/14 00:28:03;;;;;;;;;;;18.20;72.50;;;;;;5074651;28;19974;-48
2021/11/14 00:30:30;;;;;;;;;;;18.20;72.50;;;;;;5074848;28;20007;-50
2021/11/14 00:32:57;;;;;;;;;;;18.20;72.50;;;;;;5074958;28;19978;-50
2021/11/14 00:35:24;;;;;;;;;;;18.20;72.60;;;;;;5074125;28;20053;-46
2021/11/14 00:37:51;;;;;;;;;;;18.20;72.60;;;;;;5074961;28;20018;-53
2021/11/14 00:40:20;;;;;;;;;;;18.20;72.60;;;;;;5074506;28;19924;-46
2021/11/14 00:42:47;;;;;;;;;;;18.20;72.50;;;;;;5074584;28;19932;-53
2021/11/14 00:45:15;;;;;;;;;;;18.20;72.60;;;;;;5074855;28;19928;-52
2021/11/14 00:47:42;;;;;;;;;;;18.20;72.60;;;;;;5074358;28;19933;-47
2021/11/14 00:50:11;;;;;;;;;;;18.20;72.60;;;;;;5073328;28;19928;-50
2021/11/14 00:52:39;;;;;;;;;;;18.20;72.50;;;;;;5074210;28;19931;-48
2021/11/14 00:55:07;;;;;;;;;;;18.20;72.60;;;;;;5073962;28;19928;-51
2021/11/14 00:57:35;;;;;;;;;;;18.20;72.60;;;;;;5074358;28;19931;-49
2021/11/14 01:00:04;;;;;;;;;;;18.20;72.60;;;;;;5056688;28;20346;-46
2021/11/14 01:02:31;;;;;;;;;;;18.20;72.60;;;;;;5074104;28;19931;-53
2021/11/14 01:04:58;;;;;;;;;;;18.20;72.60;;;;;;5072899;28;20023;-51
2021/11/14 01:07:25;;;;;;;;;;;18.20;72.60;;;;;;5074066;28;19925;-52
2021/11/14 01:09:52;;;;;;;;;;;18.20;72.60;;;;;;5074032;28;19924;-53
2021/11/14 01:12:19;;;;;;;;;;;18.20;72.60;;;;;;5056797;28;19972;-55
2021/11/14 01:14:46;;;;;;;;;;;18.20;72.60;;;;;;5074073;28;19971;-52
2021/11/14 01:17:13;;;;;;;;;;;18.20;72.60;;;;;;5074178;28;19931;-50
2021/11/14 01:19:40;;;;;;;;;;;18.20;72.60;;;;;;5072948;28;20384;-53
2021/11/14 01:22:08;;;;;;;;;;;18.20;72.60;;;;;;5056425;28;19931;-53
2021/11/14 01:24:35;;;;;;;;;;;18.20;72.60;;;;;;5073665;28;19924;-52
2021/11/14 01:27:02;;;;;;;;;;;18.20;72.60;;;;;;5073915;28;19924;-54
2021/11/14 01:29:29;;;;;;;;;;;18.20;72.60;;;;;;5073685;28;19924;-52
2021/11/14 01:31:58;;;;;;;;;;;18.20;72.60;;;;;;5073873;28;19924;-51
2021/11/14 01:34:25;;;;;;;;;;;18.20;72.60;;;;;;5074351;28;20280;-52
2021/11/14 01:36:52;;;;;;;;;;;18.20;72.60;;;;;;5073465;28;19929;-53
2021/11/14 01:39:20;;;;;;;;;;;18.20;72.70;;;;;;5073799;28;19924;-48
2021/11/14 01:41:47;;;;;;;;;;;18.20;72.70;;;;;;5074074;28;19924;-50
2021/11/14 01:44:14;;;;;;;;;;;18.20;72.60;;;;;;5073562;28;19928;-52
2021/11/14 01:46:42;;;;;;;;;;;18.20;72.70;;;;;;5073674;28;19970;-48
2021/11/14 01:49:10;;;;;;;;;;;18.20;72.70;;;;;;5073892;28;19928;-50
2021/11/14 01:51:55;;;;;;;;;;;18.20;72.70;;;;;;5072931;28;19925;-52
2021/11/14 01:54:22;;;;;;;;;;;18.20;72.70;;;;;;5073756;28;19936;-46
2021/11/14 01:56:50;;;;;;;;;;;18.20;72.70;;;;;;5073764;28;19970;-46
2021/11/14 01:59:17;;;;;;;;;;;18.20;72.70;;;;;;5055713;28;20380;-46
2021/11/14 02:01:45;;;;;;;;;;;18.20;72.70;;;;;;5073548;28;19924;-53
2021/11/14 02:04:12;;;;;;;;;;;18.10;72.50;;;;;;5073509;28;19924;-45
2021/11/14 02:06:42;;;;;;;;;;;18.20;72.70;;;;;;5072103;28;19960;-49
2021/11/14 02:09:09;;;;;;;;;;;18.20;72.70;;;;;;5073765;28;19978;-49
2021/11/14 02:11:36;;;;;;;;;;;18.20;72.70;;;;;;5073344;28;20412;-49
2021/11/14 02:14:03;;;;;;;;;;;18.20;72.70;;;;;;5073724;28;20338;-50
2021/11/14 02:16:30;;;;;;;;;;;18.20;72.70;;;;;;5073732;28;19924;-50
2021/11/14 02:18:57;;;;;;;;;;;18.20;72.70;;;;;;5073262;28;19955;-49
2021/11/14 02:21:25;;;;;;;;;;;18.20;72.70;;;;;;5055148;28;19928;-48
2021/11/14 02:23:52;;;;;;;;;;;18.20;72.70;;;;;;5073470;28;20295;-49
2021/11/14 02:26:22;;;;;;;;;;;18.20;72.70;;;;;;5073172;28;19924;-46
2021/11/14 02:28:51;;;;;;;;;;;18.20;72.70;;;;;;5073215;28;19928;-47
2021/11/14 02:31:18;;;;;;;;;;;18.20;72.70;;;;;;5073990;28;19924;-45
2021/11/14 02:33:46;;;;;;;;;;;18.20;72.70;;;;;;5077008;28;20019;-49
2021/11/14 02:36:13;;;;;;;;;;;18.20;72.70;;;;;;5075952;28;19932;-51
2021/11/14 02:38:41;;;;;;;;;;;18.20;72.70;;;;;;5077560;28;19929;-51
2021/11/14 02:41:08;;;;;;;;;;;18.20;72.70;;;;;;5077121;28;19929;-48
2021/11/14 02:43:36;;;;;;;;;;;18.10;72.60;;;;;;5059193;28;19924;-47
2021/11/14 02:46:04;;;;;;;;;;;18.20;72.70;;;;;;5076833;28;20429;-49
2021/11/14 02:48:31;;;;;;;;;;;18.20;72.70;;;;;;5076609;28;19978;-46
2021/11/14 02:50:59;;;;;;;;;;;18.20;72.70;;;;;;5075633;28;20392;-48
2021/11/14 02:53:26;;;;;;;;;;;18.20;72.70;;;;;;5076862;28;20272;-46
2021/11/14 02:55:54;;;;;;;;;;;18.20;72.70;;;;;;5076384;28;19969;-49
2021/11/14 02:58:21;;;;;;;;;;;18.20;72.70;;;;;;5076606;28;20441;-47
2021/11/14 03:01:02;;;;;;;;;;;18.20;72.70;;;;;;5076926;28;19928;-46
2021/11/14 03:03:29;;;;;;;;;;;18.20;72.70;;;;;;5076629;28;19931;-52
2021/11/14 03:05:57;;;;;;;;;;;18.20;72.70;;;;;;5076060;28;19924;-52
2021/11/14 03:08:24;;;;;;;;;;;18.20;72.70;;;;;;5076597;28;19975;-47
2021/11/14 03:10:51;;;;;;;;;;;18.20;72.70;;;;;;5076432;28;19956;-48
2021/11/14 03:13:20;;;;;;;;;;;18.20;72.70;;;;;;5076378;28;19924;-50
2021/11/14 03:15:48;;;;;;;;;;;18.20;72.70;;;;;;5076247;28;19974;-50
2021/11/14 03:18:16;;;;;;;;;;;18.20;72.70;;;;;;5076836;28;19928;-47
2021/11/14 03:20:44;;;;;;;;;;;18.20;72.70;;;;;;5076253;28;19929;-45
2021/11/14 03:23:11;;;;;;;;;;;18.20;72.70;;;;;;5075544;28;19928;-48
2021/11/14 03:25:38;;;;;;;;;;;18.20;72.70;;;;;;5076443;28;20102;-55
2021/11/14 03:28:05;;;;;;;;;;;18.20;72.70;;;;;;5076041;28;19925;-47
2021/11/14 03:30:33;;;;;;;;;;;18.20;72.70;;;;;;5075951;28;19925;-51
2021/11/14 03:33:01;;;;;;;;;;;18.20;72.70;;;;;;5076876;28;19946;-49
2021/11/14 03:35:37;;;;;;;;;;;18.20;72.70;;;;;;5076149;28;19970;-49
2021/11/14 03:38:04;;;;;;;;;;;18.20;72.70;;;;;;5075123;28;19929;-52
2021/11/14 03:40:31;;;;;;;;;;;18.20;72.70;;;;;;5075896;28;20418;-47
2021/11/14 03:42:58;;;;;;;;;;;18.20;72.70;;;;;;5075627;28;19925;-52
2021/11/14 03:45:25;;;;;;;;;;;18.20;72.70;;;;;;5075965;28;19924;-52
2021/11/14 03:47:52;;;;;;;;;;;18.20;72.70;;;;;;5076578;28;19931;-52
2021/11/14 03:50:19;;;;;;;;;;;18.20;72.70;;;;;;5075825;28;19960;-51
2021/11/14 03:52:46;;;;;;;;;;;18.20;72.70;;;;;;5074302;28;20395;-47
2021/11/14 03:55:14;;;;;;;;;;;18.20;72.70;;;;;;5075477;28;20018;-45
2021/11/14 03:57:41;;;;;;;;;;;18.20;72.70;;;;;;5075754;28;20280;-48
2021/11/14 04:00:10;;;;;;;;;;;18.20;72.70;;;;;;5075508;28;20453;-45
2021/11/14 04:02:37;;;;;;;;;;;18.10;72.60;;;;;;5075986;28;19928;-48
2021/11/14 04:05:04;;;;;;;;;;;18.20;72.80;;;;;;5075132;28;19924;-45
2021/11/14 04:07:31;;;;;;;;;;;18.20;72.70;;;;;;5075339;28;19924;-47
2021/11/14 04:09:58;;;;;;;;;;;18.10;72.70;;;;;;5075565;28;19931;-51
2021/11/14 04:12:25;;;;;;;;;;;18.20;73.50;;;;;;5075147;28;20422;-46
2021/11/14 04:14:52;;;;;;;;;;;18.20;72.70;;;;;;5075174;28;19955;-48
2021/11/14 04:17:19;;;;;;;;;;;18.20;72.70;;;;;;5075428;28;19932;-44
2021/11/14 04:19:46;;;;;;;;;;;18.20;72.80;;;;;;5057308;28;19925;-48
2021/11/14 04:22:13;;;;;;;;;;;18.20;72.70;;;;;;5074616;28;19928;-53
2021/11/14 04:24:41;;;;;;;;;;;18.20;72.70;;;;;;5074837;28;20441;-45
2021/11/14 04:27:08;;;;;;;;;;;18.10;72.60;;;;;;5075139;28;20007;-51
2021/11/14 04:29:35;;;;;;;;;;;18.20;72.80;;;;;;5075133;28;19928;-48
2021/11/14 04:32:02;;;;;;;;;;;18.20;72.70;;;;;;5075135;28;19931;-49
2021/11/14 04:34:30;;;;;;;;;;;18.10;72.70;;;;;;5074812;28;19925;-46
2021/11/14 04:36:56;;;;;;;;;;;18.20;72.80;;;;;;5073730;28;19924;-49
2021/11/14 04:39:24;;;;;;;;;;;18.20;72.70;;;;;;5074716;28;19931;-49
2021/11/14 04:41:51;;;;;;;;;;;18.20;72.70;;;;;;5074855;28;20015;-46
2021/11/14 04:44:18;;;;;;;;;;;18.20;72.80;;;;;;5074592;28;19974;-55
2021/11/14 04:46:45;;;;;;;;;;;18.20;72.80;;;;;;5074393;28;19978;-51
2021/11/14 04:49:12;;;;;;;;;;;18.10;72.70;;;;;;5074449;28;19925;-51
2021/11/14 04:51:39;;;;;;;;;;;18.10;72.60;;;;;;5057215;28;20292;-54
2021/11/14 04:54:06;;;;;;;;;;;18.20;72.70;;;;;;5073070;28;19950;-54
2021/11/14 04:56:33;;;;;;;;;;;18.20;72.70;;;;;;5074466;28;20331;-54
2021/11/14 04:59:00;;;;;;;;;;;18.20;72.80;;;;;;5074319;28;19932;-54
2021/11/14 05:01:27;;;;;;;;;;;18.20;72.70;;;;;;5074475;28;19974;-52
2021/11/14 05:03:55;;;;;;;;;;;18.20;72.70;;;;;;5074556;28;19990;-50
2021/11/14 05:06:22;;;;;;;;;;;18.20;72.80;;;;;;5074075;28;19928;-52
2021/11/14 05:08:48;;;;;;;;;;;18.10;72.70;;;;;;5073426;28;19978;-54
2021/11/14 05:11:16;;;;;;;;;;;18.10;72.70;;;;;;5074440;28;19924;-47
2021/11/14 05:13:43;;;;;;;;;;;18.10;72.70;;;;;;5074101;28;19974;-53
2021/11/14 05:16:10;;;;;;;;;;;18.20;72.80;;;;;;5073943;28;20376;-48
2021/11/14 05:18:37;;;;;;;;;;;18.10;72.60;;;;;;5074360;28;20287;-56
2021/11/14 05:21:04;;;;;;;;;;;18.10;72.60;;;;;;5073989;28;19924;-51
2021/11/14 05:23:31;;;;;;;;;;;18.20;72.80;;;;;;5055060;28;19931;-48
2021/11/14 05:25:58;;;;;;;;;;;18.20;72.80;;;;;;5073937;28;20388;-52
2021/11/14 05:28:25;;;;;;;;;;;18.10;72.60;;;;;;5074227;28;19967;-48
2021/11/14 05:30:52;;;;;;;;;;;18.20;72.70;;;;;;5073961;28;19924;-51
2021/11/14 05:33:19;;;;;;;;;;;18.10;72.60;;;;;;5074396;28;19928;-47
2021/11/14 05:35:46;;;;;;;;;;;18.10;72.70;;;;;;5074001;28;19924;-50
2021/11/14 05:38:13;;;;;;;;;;;18.20;72.70;;;;;;5073113;28;20375;-47
2021/11/14 05:40:40;;;;;;;;;;;18.10;72.60;;;;;;5056015;28;19932;-45
2021/11/14 05:43:08;;;;;;;;;;;18.20;72.80;;;;;;5073688;28;20372;-51
2021/11/14 05:45:35;;;;;;;;;;;18.10;72.60;;;;;;5073664;28;20027;-55
2021/11/14 05:48:02;;;;;;;;;;;18.10;72.60;;;;;;5074000;28;20003;-51
2021/11/14 05:50:30;;;;;;;;;;;18.10;72.70;;;;;;5073507;28;20011;-52
2021/11/14 05:52:57;;;;;;;;;;;18.10;72.70;;;;;;5072552;28;19986;-54
2021/11/14 05:55:24;;;;;;;;;;;18.20;72.80;;;;;;5073680;28;19924;-49
2021/11/14 06:00:51;;;;;;;;;;;18.10;72.60;;;;;;5073906;28;20269;-49
2021/11/14 06:03:23;;;;;;;;;;;18.10;72.60;;;;;;5073525;28;19924;-52
2021/11/14 06:05:50;;;;;;;;;;;18.10;72.60;;;;;;5073506;28;19924;-48
2021/11/14 06:08:20;;;;;;;;;;;18.10;72.70;;;;;;5076411;28;19924;-52
2021/11/14 06:10:48;;;;;;;;;;;18.10;72.60;;;;;;5078466;28;19962;-50
2021/11/14 06:13:18;;;;;;;;;;;18.10;72.70;;;;;;5077709;28;20341;-53
2021/11/14 06:15:45;;;;;;;;;;;18.10;72.60;;;;;;5077784;28;20007;-50
2021/11/14 06:18:12;;;;;;;;;;;18.10;72.70;;;;;;5077443;28;20391;-48
2021/11/14 06:20:39;;;;;;;;;;;18.10;72.70;;;;;;5077535;28;19931;-52
2021/11/14 06:23:06;;;;;;;;;;;18.20;72.80;;;;;;5076846;28;19954;-46
2021/11/14 06:25:33;;;;;;;;;;;18.10;72.60;;;;;;5077486;28;19967;-47
2021/11/14 06:28:00;;;;;;;;;;;18.10;72.70;;;;;;5077809;28;19928;-46
2021/11/14 06:30:27;;;;;;;;;;;18.20;72.70;;;;;;5059376;28;19924;-51
2021/11/14 06:32:55;;;;;;;;;;;18.10;72.60;;;;;;5077326;28;19932;-46
2021/11/14 06:35:22;;;;;;;;;;;18.10;72.60;;;;;;5077435;28;19932;-48
2021/11/14 06:37:49;;;;;;;;;;;18.20;72.70;;;;;;5077864;28;19975;-51
2021/11/14 06:40:16;;;;;;;;;;;18.20;72.60;;;;;;5075805;28;19925;-52
2021/11/14 06:42:43;;;;;;;;;;;18.20;72.60;;;;;;5076948;28;19925;-50
2021/11/14 06:45:10;;;;;;;;;;;18.20;72.60;;;;;;5076897;28;19928;-51
2021/11/14 06:47:37;;;;;;;;;;;18.20;72.60;;;;;;5076728;28;20003;-49
2021/11/14 06:50:07;;;;;;;;;;;18.20;72.60;;;;;;5076726;28;19977;-51
2021/11/14 06:52:34;;;;;;;;;;;18.20;72.60;;;;;;5076988;28;19931;-45
2021/11/14 06:55:01;;;;;;;;;;;18.20;72.60;;;;;;5075864;28;19925;-45
2021/11/14 06:57:28;;;;;;;;;;;18.20;72.60;;;;;;5077039;28;19990;-48
2021/11/14 06:59:55;;;;;;;;;;;18.20;72.60;;;;;;5077193;28;20284;-49
2021/11/14 07:02:22;;;;;;;;;;;18.20;72.50;;;;;;5076771;28;20356;-49
2021/11/14 07:04:49;;;;;;;;;;;18.20;72.50;;;;;;5076438;28;19924;-52
2021/11/14 07:07:16;;;;;;;;;;;18.20;72.50;;;;;;5076760;28;20395;-48
2021/11/14 07:09:43;;;;;;;;;;;18.20;72.40;;;;;;5075352;28;19924;-48
2021/11/14 07:12:11;;;;;;;;;;;18.20;72.40;;;;;;5076434;28;19933;-51
2021/11/14 07:14:38;;;;;;;;;;;18.20;72.40;;;;;;5076379;28;19932;-49
2021/11/14 07:17:05;;;;;;;;;;;18.20;72.30;;;;;;5076230;28;19985;-54
2021/11/14 07:19:32;;;;;;;;;;;18.20;72.40;;;;;;5076602;28;20295;-48
2021/11/14 07:21:59;;;;;;;;;;;18.20;72.30;;;;;;5076131;28;19924;-49
2021/11/14 07:24:26;;;;;;;;;;;18.20;72.30;;;;;;5074967;28;19972;-47
2021/11/14 07:26:53;;;;;;;;;;;18.20;72.30;;;;;;5076146;28;19924;-50
2021/11/14 07:29:20;;;;;;;;;;;18.20;72.30;;;;;;5058192;28;19924;-44
2021/11/14 07:31:47;;;;;;;;;;;18.20;72.30;;;;;;5059516;28;19928;-48
2021/11/14 07:34:14;;;;;;;;;;;18.20;72.30;;;;;;5076216;28;19924;-51
2021/11/14 07:36:41;;;;;;;;;;;18.20;72.30;;;;;;5075838;28;19928;-50
2021/11/14 07:39:08;;;;;;;;;;;18.20;72.30;;;;;;5057363;28;20330;-49
2021/11/14 07:41:35;;;;;;;;;;;18.20;72.20;;;;;;5076175;28;19975;-51
2021/11/14 07:44:03;;;;;;;;;;;18.20;72.30;;;;;;5076249;28;19985;-54
2021/11/14 07:46:30;;;;;;;;;;;18.20;72.30;;;;;;5075805;28;19974;-51
2021/11/14 07:48:58;;;;;;;;;;;18.20;72.20;;;;;;5075717;28;19924;-51
2021/11/14 07:51:27;;;;;;;;;;;18.20;72.20;;;;;;5075780;28;20011;-49
2021/11/14 07:53:54;;;;;;;;;;;18.20;72.20;;;;;;5075025;28;19925;-53
2021/11/14 07:56:21;;;;;;;;;;;18.20;72.20;;;;;;5075702;28;20003;-47
2021/11/14 07:58:48;;;;;;;;;;;18.20;72.20;;;;;;5075685;28;20398;-51
2021/11/14 08:01:15;;;;;;;;;;;18.30;72.20;;;;;;5075487;28;20380;-50
2021/11/14 08:03:42;;;;;;;;;;;18.30;72.20;;;;;;5075468;28;19928;-50
2021/11/14 08:06:09;;;;;;;;;;;18.30;72.20;;;;;;5075174;28;19929;-45
2021/11/14 08:08:36;;;;;;;;;;;18.30;72.20;;;;;;5075337;28;19929;-49
2021/11/14 08:11:03;;;;;;;;;;;18.20;72.10;;;;;;5074525;28;20273;-46
2021/11/14 08:13:30;;;;;;;;;;;18.30;72.20;;;;;;5075256;28;19928;-48
2021/11/14 08:15:57;;;;;;;;;;;18.30;72.20;;;;;;5075504;28;19947;-47
2021/11/14 08:18:24;;;;;;;;;;;18.30;72.10;;;;;;5075460;28;19929;-48
2021/11/14 08:20:51;;;;;;;;;;;18.30;72.10;;;;;;5075102;28;19924;-50
2021/11/14 08:23:20;;;;;;;;;;;18.30;72.10;;;;;;5074905;28;19924;-49
2021/11/14 08:25:49;;;;;;;;;;;18.30;72.10;;;;;;5074600;28;19924;-52
2021/11/14 08:28:16;;;;;;;;;;;18.30;72.10;;;;;;5074653;28;19929;-49
2021/11/14 08:30:44;;;;;;;;;;;18.30;72.10;;;;;;5074235;28;19924;-54
2021/11/14 08:33:32;;;;;;;;;;;18.30;72.10;;;;;;5074843;28;19931;-53
2021/11/14 08:35:59;;;;;;;;;;;18.30;72.10;;;;;;5075024;28;19925;-55
2021/11/14 08:38:27;;;;;;;;;;;18.30;72.10;;;;;;5075102;28;20333;-54
2021/11/14 08:40:54;;;;;;;;;;;18.30;72.10;;;;;;5074564;28;19925;-54
2021/11/14 08:43:21;;;;;;;;;;;18.30;72.00;;;;;;5074956;28;19924;-54
2021/11/14 08:45:49;;;;;;;;;;;18.30;72.00;;;;;;5074924;28;19924;-51
2021/11/14 08:48:21;;;;;;;;;;;18.30;72.00;;;;;;5075474;28;19928;-52
2021/11/14 08:50:48;;;;;;;;;;;18.30;72.00;;;;;;5074450;28;19925;-52
2021/11/14 08:53:16;;;;;;;;;;;18.30;71.90;;;;;;5074292;28;20433;-48
2021/11/14 08:55:43;;;;;;;;;;;18.30;71.90;;;;;;5073786;28;20312;-52
2021/11/14 08:58:28;;;;;;;;;;;18.40;72.00;;;;;;5074696;28;19963;-50
2021/11/14 09:00:56;;;;;;;;;;;18.30;71.90;;;;;;5074323;28;20015;-48
2021/11/14 09:03:24;;;;;;;;;;;18.40;71.90;;;;;;5074224;28;20463;-53
2021/11/14 09:05:51;;;;;;;;;;;18.40;71.90;;;;;;5074579;28;19928;-53
2021/11/14 09:08:18;;;;;;;;;;;18.40;71.90;;;;;;5074170;28;19924;-49
2021/11/14 09:10:45;;;;;;;;;;;18.40;71.90;;;;;;5073258;28;19967;-49
2021/11/14 09:13:15;;;;;;;;;;;18.40;71.80;;;;;;5074415;28;19946;-49
2021/11/14 09:15:42;;;;;;;;;;;18.40;71.80;;;;;;5074101;28;19985;-51
2021/11/14 09:18:14;;;;;;;;;;;18.40;72.50;;;;;;5074152;28;20383;-52
2021/11/14 09:20:42;;;;;;;;;;;18.40;71.80;;;;;;5074319;28;19986;-53
2021/11/14 09:23:09;;;;;;;;;;;18.40;71.80;;;;;;5074153;28;20315;-48
2021/11/14 09:25:39;;;;;;;;;;;18.40;71.70;;;;;;5072918;28;19931;-49
2021/11/14 09:28:08;;;;;;;;;;;18.40;71.70;;;;;;5074254;28;19928;-46
2021/11/14 09:30:35;;;;;;;;;;;18.40;72.40;;;;;;5073805;28;19928;-50
2021/11/14 09:33:03;;;;;;;;;;;18.40;71.60;;;;;;5074182;28;19977;-51
2021/11/14 09:35:30;;;;;;;;;;;18.40;71.60;;;;;;5056522;28;19990;-51
2021/11/14 09:37:57;;;;;;;;;;;18.40;71.60;;;;;;5073800;28;19982;-46
2021/11/14 09:40:24;;;;;;;;;;;18.40;71.70;;;;;;5072431;28;19932;-50
2021/11/14 09:42:51;;;;;;;;;;;18.40;71.60;;;;;;5074059;28;20334;-47
2021/11/14 09:45:18;;;;;;;;;;;18.40;71.60;;;;;;5073630;28;19925;-47
2021/11/14 09:47:45;;;;;;;;;;;18.40;71.60;;;;;;5073969;28;19924;-47
2021/11/14 09:50:12;;;;;;;;;;;18.50;71.70;;;;;;5073604;28;19924;-49
2021/11/14 09:52:39;;;;;;;;;;;18.50;71.60;;;;;;5073463;28;19925;-52
2021/11/14 09:55:07;;;;;;;;;;;18.40;71.50;;;;;;5055056;28;19970;-51
2021/11/14 09:57:36;;;;;;;;;;;18.40;71.50;;;;;;5073982;28;20386;-45
2021/11/14 10:00:08;;;;;;;;;;;18.50;71.60;;;;;;5073572;28;19925;-46
2021/11/14 10:02:43;;;;;;;;;;;18.50;71.60;;;;;;5056203;28;19947;-48
2021/11/14 10:05:12;;;;;;;;;;;18.50;71.60;;;;;;5073387;28;20341;-51
2021/11/14 10:07:41;;;;;;;;;;;18.50;71.60;;;;;;5073786;28;20006;-53
2021/11/14 10:10:09;;;;;;;;;;;18.40;71.50;;;;;;5073945;28;19928;-46
2021/11/14 10:12:39;;;;;;;;;;;18.40;71.50;;;;;;5073775;28;20330;-46
2021/11/14 10:15:06;;;;;;;;;;;18.50;71.60;;;;;;5073983;28;20342;-48
2021/11/14 10:17:34;;;;;;;;;;;18.40;71.40;;;;;;5073436;28;19975;-47
2021/11/14 10:20:12;;;;;;;;;;;18.50;71.50;;;;;;5073371;28;20380;-50
2021/11/14 10:22:41;;;;;;;;;;;18.50;71.50;;;;;;5056572;28;20402;-50
2021/11/14 10:25:08;;;;;;;;;;;18.50;71.50;;;;;;5073322;28;19925;-51
2021/11/14 10:27:35;;;;;;;;;;;18.50;71.50;;;;;;5072307;28;19928;-50
2021/11/14 10:30:03;;;;;;;;;;;18.50;71.40;;;;;;5073214;28;20371;-51
2021/11/14 10:32:30;;;;;;;;;;;18.50;71.40;;;;;;5073597;28;19924;-51
2021/11/14 10:35:04;;;;;;;;;;;18.50;71.40;;;;;;5073459;28;20272;-48
2021/11/14 10:37:42;;;;;;;;;;;18.50;71.40;;;;;;5074131;28;19967;-50
2021/11/14 10:40:29;;;;;;;;;;;18.50;71.30;;;;;;5073261;28;20020;-46
2021/11/14 10:42:57;;;;;;;;;;;18.50;71.30;;;;;;5072388;28;20268;-45
2021/11/14 10:45:25;;;;;;;;;;;18.50;71.30;;;;;;5073712;28;19982;-45
2021/11/14 10:48:00;;;;;;;;;;;18.50;71.30;;;;;;5073439;28;19970;-50
2021/11/14 10:50:31;;;;;;;;;;;18.50;71.30;;;;;;5073018;28;19978;-44
2021/11/14 10:52:59;;;;;;;;;;;18.50;71.30;;;;;;5057054;28;20395;-47
2021/11/14 10:55:30;;;;;;;;;;;18.50;71.20;;;;;;5076515;28;19924;-49
2021/11/14 10:57:57;;;;;;;;;;;18.60;71.30;;;;;;5076520;28;19924;-45
2021/11/14 11:00:26;;;;;;;;;;;18.60;71.30;;;;;;5077234;28;19924;-45
2021/11/14 11:02:53;;;;;;;;;;;18.50;71.10;;;;;;5076601;28;19924;-55
2021/11/14 11:05:25;;;;;;;;;;;18.60;71.20;;;;;;5076754;28;19977;-50
2021/11/14 11:07:56;;;;;;;;;;;18.60;71.20;;;;;;5077083;28;19924;-48
2021/11/14 11:10:25;;;;;;;;;;;18.60;71.40;;;;;;5076417;28;20399;-45
2021/11/14 11:12:52;;;;;;;;;;;18.60;71.90;;;;;;5076076;28;19943;-48
2021/11/14 11:15:23;;;;;;;;;;;18.60;71.20;;;;;;5076692;28;19932;-47
2021/11/14 11:17:51;;;;;;;;;;;18.60;71.90;;;;;;5076309;28;19925;-48
2021/11/14 11:20:20;;;;;;;;;;;18.60;71.10;;;;;;5076590;28;19978;-47
2021/11/14 11:22:53;;;;;;;;;;;18.60;71.20;;;;;;5076103;28;19925;-48
2021/11/14 11:25:27;;;;;;;;;;;18.60;71.20;;;;;;5058870;28;19924;-51
2021/11/14 11:27:54;;;;;;;;;;;18.50;71.10;;;;;;5075173;28;19928;-52
2021/11/14 11:30:33;;;;;;;;;;;18.60;71.20;;;;;;5076606;28;19978;-45
2021/11/14 11:33:01;;;;;;;;;;;18.60;71.20;;;;;;5076134;28;20022;-48
2021/11/14 11:35:28;;;;;;;;;;;18.60;71.20;;;;;;5075909;28;19928;-50
2021/11/14 11:37:55;;;;;;;;;;;18.50;71.10;;;;;;5076514;28;19924;-48
2021/11/14 11:40:23;;;;;;;;;;;18.60;71.20;;;;;;5075940;28;19925;-51
2021/11/14 11:42:53;;;;;;;;;;;18.60;71.10;;;;;;5075046;28;19924;-50
2021/11/14 11:45:33;;;;;;;;;;;18.60;71.20;;;;;;5075829;28;19931;-49
2021/11/14 11:48:04;;;;;;;;;;;18.60;71.10;;;;;;5075806;28;19931;-45
2021/11/14 11:50:33;;;;;;;;;;;18.60;71.90;;;;;;5075919;28;19930;-50
2021/11/14 11:53:01;;;;;;;;;;;18.60;71.10;;;;;;5076021;28;19924;-48
2021/11/14 11:55:38;;;;;;;;;;;18.60;71.20;;;;;;5075475;28;19924;-50
2021/11/14 11:58:10;;;;;;;;;;;18.60;71.20;;;;;;5074699;28;20291;-50
2021/11/14 12:00:50;;;;;;;;;;;18.60;71.20;;;;;;5075550;28;19931;-51
2021/11/14 12:03:24;;;;;;;;;;;18.50;71.00;;;;;;5075720;28;20059;-51
2021/11/14 12:05:52;;;;;;;;;;;18.60;71.20;;;;;;5075301;28;19954;-50
2021/11/14 12:08:19;;;;;;;;;;;18.60;71.20;;;;;;5075385;28;19970;-46
2021/11/14 12:10:55;;;;;;;;;;;18.60;71.20;;;;;;5075269;28;19924;-46
2021/11/14 12:13:27;;;;;;;;;;;18.60;71.90;;;;;;5074429;28;19978;-51
2021/11/14 12:15:57;;;;;;;;;;;18.60;71.10;;;;;;5075279;28;19925;-51
2021/11/14 12:18:24;;;;;;;;;;;18.50;71.10;;;;;;5075788;28;19931;-49
2021/11/14 12:20:52;;;;;;;;;;;18.60;71.20;;;;;;5075159;28;20016;-54
2021/11/14 12:23:19;;;;;;;;;;;18.60;71.20;;;;;;5075301;28;19924;-50
2021/11/14 12:25:48;;;;;;;;;;;18.60;71.20;;;;;;5075346;28;19978;-52
2021/11/14 12:28:19;;;;;;;;;;;18.60;71.20;;;;;;5074200;28;19929;-53
2021/11/14 12:30:56;;;;;;;;;;;18.50;71.10;;;;;;5075229;28;19947;-53
2021/11/14 12:33:25;;;;;;;;;;;18.60;71.20;;;;;;5075160;28;19925;-53
2021/11/14 12:35:57;;;;;;;;;;;18.60;71.20;;;;;;5074723;28;20383;-51
2021/11/14 12:38:26;;;;;;;;;;;18.60;71.20;;;;;;5075707;28;19925;-54
2021/11/14 12:40:56;;;;;;;;;;;18.60;71.20;;;;;;5074751;28;19954;-51
2021/11/14 12:43:25;;;;;;;;;;;18.50;71.10;;;;;;5073558;28;19924;-54
2021/11/14 12:45:57;;;;;;;;;;;18.60;71.30;;;;;;5074651;28;19925;-54
2021/11/14 12:48:25;;;;;;;;;;;18.50;71.20;;;;;;5074613;28;19924;-48
2021/11/14 12:51:04;;;;;;;;;;;18.60;71.30;;;;;;5057105;28;20303;-52
2021/11/14 12:53:43;;;;;;;;;;;18.50;71.20;;;;;;5074231;28;19925;-51
2021/11/14 12:56:11;;;;;;;;;;;18.50;71.20;;;;;;5074488;28;19989;-54
2021/11/14 12:58:38;;;;;;;;;;;18.50;71.20;;;;;;5073506;28;19924;-54
2021/11/14 13:01:06;;;;;;;;;;;18.50;71.20;;;;;;5074697;28;19924;-51
2021/11/14 13:03:37;;;;;;;;;;;18.50;71.30;;;;;;5074020;28;20332;-53
2021/11/14 13:06:14;;;;;;;;;;;18.50;71.30;;;;;;5074439;28;20330;-50
2021/11/14 13:08:41;;;;;;;;;;;18.50;71.30;;;;;;5074838;28;20264;-47
2021/11/14 13:11:18;;;;;;;;;;;18.50;71.30;;;;;;5074074;28;19924;-48
2021/11/14 13:13:45;;;;;;;;;;;18.50;71.30;;;;;;5073229;28;20376;-52
2021/11/14 13:16:14;;;;;;;;;;;18.50;71.40;;;;;;5074209;28;19974;-52
2021/11/14 13:18:41;;;;;;;;;;;18.50;71.40;;;;;;5074081;28;19928;-53
2021/11/14 13:21:10;;;;;;;;;;;18.50;71.40;;;;;;5074371;28;20353;-54
2021/11/14 13:23:37;;;;;;;;;;;18.50;71.50;;;;;;5074127;28;19928;-52
2021/11/14 13:26:06;;;;;;;;;;;18.50;71.50;;;;;;5074274;28;19930;-51
2021/11/14 13:28:33;;;;;;;;;;;18.50;71.50;;;;;;5072726;28;20393;-51
2021/11/14 13:31:00;;;;;;;;;;;18.50;71.50;;;;;;5074137;28;19972;-51
2021/11/14 13:33:27;;;;;;;;;;;18.50;71.60;;;;;;5073881;28;19925;-49
2021/11/14 13:36:07;;;;;;;;;;;18.40;71.50;;;;;;5073727;28;20406;-47
2021/11/14 13:38:40;;;;;;;;;;;18.50;71.60;;;;;;5073843;28;19982;-51
2021/11/14 13:41:18;;;;;;;;;;;18.50;71.60;;;;;;5074078;28;19924;-51
2021/11/14 13:43:50;;;;;;;;;;;18.40;71.60;;;;;;5073444;28;19931;-52
2021/11/14 13:46:16;;;;;;;;;;;18.40;71.60;;;;;;5074045;28;19963;-50
2021/11/14 13:48:52;;;;;;;;;;;18.40;71.60;;;;;;5074041;28;20358;-54
2021/11/14 13:51:20;;;;;;;;;;;18.40;71.60;;;;;;5073966;28;19928;-51
2021/11/14 13:53:47;;;;;;;;;;;18.40;71.70;;;;;;5073631;28;19967;-53
2021/11/14 13:56:16;;;;;;;;;;;18.40;71.70;;;;;;5073462;28;19925;-52
2021/11/14 13:58:46;;;;;;;;;;;18.40;71.70;;;;;;5073185;28;20031;-53
2021/11/14 14:01:13;;;;;;;;;;;18.40;71.70;;;;;;5074730;28;19951;-49
2021/11/14 14:03:41;;;;;;;;;;;18.40;71.80;;;;;;5073734;28;19928;-47
2021/11/14 14:06:09;;;;;;;;;;;18.40;71.80;;;;;;5073547;28;19925;-53
2021/11/14 14:08:37;;;;;;;;;;;18.40;71.80;;;;;;5055807;28;19976;-51
2021/11/14 14:11:06;;;;;;;;;;;18.40;71.80;;;;;;5073740;28;19925;-46
2021/11/14 14:13:34;;;;;;;;;;;18.40;71.90;;;;;;5055477;28;19931;-51
2021/11/14 14:16:01;;;;;;;;;;;18.40;71.90;;;;;;5073790;28;19994;-51
2021/11/14 14:18:28;;;;;;;;;;;18.30;71.80;;;;;;5073751;28;20007;-47
2021/11/14 14:21:00;;;;;;;;;;;18.30;71.80;;;;;;5073422;28;19955;-49
2021/11/14 14:23:28;;;;;;;;;;;18.30;71.80;;;;;;5073527;28;19924;-46
2021/11/14 14:25:55;;;;;;;;;;;18.30;71.90;;;;;;5073687;28;19956;-47